createdAt,value
2022-09-27T00:01:13.198Z,99415.52
2022-09-27T00:03:43.566Z,99412.19
2022-09-27T00:06:18.875Z,99406.69
2022-09-27T00:08:46.718Z,99403.02
2022-09-27T00:11:28.879Z,99401.13
2022-09-27T00:13:58.903Z,99402.10
2022-09-27T00:16:30.982Z,99398.67
2022-09-27T00:19:00.839Z,99401.20
2022-09-27T00:21:30.770Z,99397.35
2022-09-27T00:23:59.652Z,99390.06
2022-09-27T00:26:29.515Z,99389.61
2022-09-27T00:28:58.277Z,99388.05
2022-09-27T00:31:29.949Z,99385.66
2022-09-27T00:34:00.742Z,99383.19
2022-09-27T00:36:30.340Z,99373.95
2022-09-27T00:39:00.197Z,99374.69
2022-09-27T00:41:36.253Z,99370.36
2022-09-27T00:44:25.930Z,99370.33
2022-09-27T00:47:22.945Z,99369.33
2022-09-27T00:49:57.584Z,99367.88
2022-09-27T00:52:42.191Z,99362.17
2022-09-27T00:55:16.103Z,99353.96
2022-09-27T00:57:46.250Z,99353.04
2022-09-27T01:00:15.476Z,99354.23
2022-09-27T01:02:50.660Z,99347.67
2022-09-27T01:05:22.064Z,99339.37
2022-09-27T01:07:50.517Z,99337.11
2022-09-27T01:10:19.889Z,99330.88
2022-09-27T01:13:01.595Z,99330.27
2022-09-27T01:15:43.533Z,99322.77
2022-09-27T01:18:24.291Z,99321.96
2022-09-27T01:21:10.653Z,99328.16
2022-09-27T01:24:24.015Z,99326.55
2022-09-27T01:27:22.315Z,99323.69
2022-09-27T01:30:13.784Z,99324.02
2022-09-27T01:32:55.044Z,99320.65
2022-09-27T01:35:22.807Z,99314.98
2022-09-27T01:37:54.916Z,99313.05
2022-09-27T01:41:07.125Z,99308.85
2022-09-27T01:44:20.866Z,99308.73
2022-09-27T01:46:56.443Z,99312.80
2022-09-27T01:49:56.909Z,99312.92
2022-09-27T01:52:35.391Z,99302.23
2022-09-27T01:55:08.134Z,99299.70
2022-09-27T01:58:26.811Z,99293.00
2022-09-27T02:00:58.365Z,99285.27
2022-09-27T02:03:33.870Z,99277.11
2022-09-27T02:06:45.727Z,99266.90
2022-09-27T02:09:29.029Z,99256.10
2022-09-27T02:12:13.329Z,99254.56
2022-09-27T02:14:46.114Z,99249.73
2022-09-27T02:17:23.588Z,99246.00
2022-09-27T02:20:07.941Z,99249.30
2022-09-27T02:22:50.532Z,99249.38
2022-09-27T02:25:24.502Z,99249.07
2022-09-27T02:28:13.939Z,99246.36
2022-09-27T02:30:42.307Z,99239.95
2022-09-27T02:33:28.263Z,99236.84
2022-09-27T02:35:56.258Z,99237.58
2022-09-27T02:38:24.800Z,99233.78
2022-09-27T02:40:55.136Z,99236.17
2022-09-27T02:43:27.678Z,99233.35
2022-09-27T02:46:11.710Z,99228.52
2022-09-27T02:49:05.896Z,99222.55
2022-09-27T02:51:54.416Z,99218.48
2022-09-27T02:54:37.345Z,99214.35
2022-09-27T02:57:24.011Z,99209.39
2022-09-27T03:00:21.656Z,99204.09
2022-09-27T03:03:07.041Z,99207.80
2022-09-27T03:06:05.537Z,99207.52
2022-09-27T03:08:33.886Z,99202.48
2022-09-27T03:11:01.982Z,99198.98
2022-09-27T03:13:30.586Z,99196.38
2022-09-27T03:16:01.562Z,99195.65
2022-09-27T03:18:48.743Z,99197.29
2022-09-27T03:21:35.341Z,99192.77
2022-09-27T03:24:03.769Z,99195.45
2022-09-27T03:26:32.115Z,99183.80
2022-09-27T03:29:00.076Z,99181.91
2022-09-27T03:31:28.684Z,99182.66
2022-09-27T03:34:17.061Z,99180.84
2022-09-27T03:36:45.550Z,99185.58
2022-09-27T03:39:13.621Z,99175.35
2022-09-27T03:41:41.821Z,99172.40
2022-09-27T03:44:09.842Z,99171.36
2022-09-27T03:46:37.699Z,99170.69
2022-09-27T03:49:05.583Z,99166.92
2022-09-27T03:51:33.400Z,99163.89
2022-09-27T03:54:01.255Z,99164.77
2022-09-27T03:56:29.534Z,99163.17
2022-09-27T03:58:57.306Z,99161.04
2022-09-27T04:01:27.114Z,99159.29
2022-09-27T04:03:55.793Z,99155.86
2022-09-27T04:06:31.362Z,99150.30
2022-09-27T04:08:59.246Z,99146.69
2022-09-27T04:11:35.368Z,99143.45
2022-09-27T04:14:05.727Z,99141.71
2022-09-27T04:16:37.042Z,99136.75
2022-09-27T04:19:29.301Z,99139.70
2022-09-27T04:22:10.995Z,99138.14
2022-09-27T04:24:39.794Z,99130.71
2022-09-27T04:27:25.015Z,99129.63
2022-09-27T04:29:52.936Z,99127.78
2022-09-27T04:32:45.081Z,99125.58
2022-09-27T04:36:04.520Z,99121.47
2022-09-27T04:38:35.184Z,99118.42
2022-09-27T04:41:03.396Z,99120.67
2022-09-27T04:43:34.548Z,99117.20
2022-09-27T04:46:04.261Z,99116.88
2022-09-27T04:48:32.365Z,99115.61
2022-09-27T04:51:05.345Z,99108.16
2022-09-27T04:53:33.901Z,99105.17
2022-09-27T04:56:06.113Z,99107.36
2022-09-27T04:58:35.359Z,99100.98
2022-09-27T05:01:04.379Z,99100.69
2022-09-27T05:03:47.758Z,99097.92
2022-09-27T05:06:16.985Z,99099.45
2022-09-27T05:08:45.844Z,99097.75
2022-09-27T05:11:25.046Z,99102.94
2022-09-27T05:17:10.191Z,99097.92
2022-09-27T05:20:05.016Z,99092.22
2022-09-27T05:22:40.501Z,99094.21
2022-09-27T05:25:09.965Z,99093.28
2022-09-27T05:27:38.561Z,99087.58
2022-09-27T05:30:08.315Z,99088.20
2022-09-27T05:32:44.245Z,99089.30
2022-09-27T05:35:36.303Z,99092.36
2022-09-27T05:38:04.486Z,99092.98
2022-09-27T05:40:41.292Z,99091.71
2022-09-27T05:43:10.476Z,99087.21
2022-09-27T05:45:38.441Z,99091.98
2022-09-27T05:48:08.416Z,99092.02
2022-09-27T05:50:45.724Z,99093.80
2022-09-27T05:53:13.891Z,99096.79
2022-09-27T05:55:43.297Z,99095.48
2022-09-27T05:58:13.839Z,99095.27
2022-09-27T06:00:47.974Z,99093.34
2022-09-27T06:03:40.198Z,99092.23
2022-09-27T06:06:26.655Z,99086.19
2022-09-27T06:08:57.727Z,99086.77
2022-09-27T06:11:27.889Z,99081.61
2022-09-27T06:13:55.924Z,99080.46
2022-09-27T06:16:25.520Z,99081.66
2022-09-27T06:18:54.142Z,99084.11
2022-09-27T06:21:22.755Z,99083.71
2022-09-27T06:23:58.565Z,99082.06
2022-09-27T06:26:31.457Z,99082.24
2022-09-27T06:29:15.122Z,99082.11
2022-09-27T06:31:56.859Z,99083.20
2022-09-27T06:34:37.789Z,99082.02
2022-09-27T06:37:05.647Z,99082.13
2022-09-27T06:39:34.511Z,99081.19
2022-09-27T06:42:18.142Z,99081.85
2022-09-27T06:45:18.157Z,99085.28
2022-09-27T06:48:06.920Z,99087.77
2022-09-27T06:50:49.288Z,99088.80
2022-09-27T06:53:17.890Z,99084.88
2022-09-27T06:55:46.085Z,99080.32
2022-09-27T06:58:32.848Z,99080.72
2022-09-27T07:01:20.619Z,99075.51
2022-09-27T07:04:26.889Z,99075.95
2022-09-27T07:07:30.451Z,99073.89
2022-09-27T07:09:59.035Z,99073.57
2022-09-27T07:12:28.949Z,99075.52
2022-09-27T07:14:57.183Z,99074.58
2022-09-27T07:17:25.072Z,99076.94
2022-09-27T07:19:55.430Z,99072.27
2022-09-27T07:22:23.799Z,99069.61
2022-09-27T07:25:00.824Z,99070.98
2022-09-27T07:27:28.878Z,99070.04
2022-09-27T07:29:56.923Z,99060.36
2022-09-27T07:32:26.252Z,99058.58
2022-09-27T07:34:54.814Z,99059.70
2022-09-27T07:37:23.730Z,99061.97
2022-09-27T07:39:51.566Z,99058.97
2022-09-27T07:42:19.908Z,99058.98
2022-09-27T07:44:52.318Z,99052.56
2022-09-27T07:47:53.081Z,99054.86
2022-09-27T07:50:40.074Z,99056.33
2022-09-27T07:53:26.825Z,99058.19
2022-09-27T07:56:05.200Z,99064.08
2022-09-27T07:58:34.469Z,99063.64
2022-09-27T08:01:06.111Z,99062.27
2022-09-27T08:03:35.111Z,99067.00
2022-09-27T08:06:04.653Z,99069.85
2022-09-27T08:08:33.135Z,99069.98
2022-09-27T08:11:16.204Z,99073.16
2022-09-27T08:13:48.059Z,99075.08
2022-09-27T08:16:16.027Z,99076.91
2022-09-27T08:19:16.080Z,99073.19
2022-09-27T08:21:58.763Z,99075.47
2022-09-27T08:24:30.995Z,99067.00
2022-09-27T08:27:21.902Z,99064.52
2022-09-27T08:29:53.456Z,99063.29
2022-09-27T08:32:23.444Z,99067.46
2022-09-27T08:34:52.980Z,99068.65
2022-09-27T08:37:22.895Z,99068.41
2022-09-27T08:39:51.283Z,99072.50
2022-09-27T08:42:50.446Z,99073.08
2022-09-27T08:45:50.788Z,99081.01
2022-09-27T08:48:27.612Z,99076.97
2022-09-27T08:50:56.370Z,99076.85
2022-09-27T08:53:36.379Z,99073.48
2022-09-27T08:56:08.710Z,99071.34
2022-09-27T08:58:53.200Z,99075.71
2022-09-27T09:01:32.672Z,99076.31
2022-09-27T09:04:11.617Z,99076.67
2022-09-27T09:06:59.699Z,99075.73
2022-09-27T09:09:36.725Z,99072.59
2022-09-27T09:12:45.654Z,99074.98
2022-09-27T09:15:32.053Z,99078.69
2022-09-27T09:18:23.957Z,99078.82
2022-09-27T09:21:17.585Z,99084.50
2022-09-27T09:24:23.125Z,99084.90
2022-09-27T09:27:04.847Z,99085.02
2022-09-27T09:29:38.841Z,99079.40
2022-09-27T09:32:28.878Z,99078.50
2022-09-27T09:35:06.409Z,99079.59
2022-09-27T09:37:41.482Z,99081.71
2022-09-27T09:40:28.181Z,99083.98
2022-09-27T09:43:15.415Z,99080.02
2022-09-27T09:45:47.304Z,99080.95
2022-09-27T09:48:39.879Z,99086.77
2022-09-27T09:51:13.187Z,99088.13
2022-09-27T09:53:52.341Z,99090.34
2022-09-27T09:57:18.648Z,99088.30
2022-09-27T09:59:54.482Z,99081.69
2022-09-27T10:02:36.975Z,99082.88
2022-09-27T10:05:16.733Z,99082.27
2022-09-27T10:07:47.095Z,99078.92
2022-09-27T10:10:17.687Z,99077.73
2022-09-27T10:13:22.335Z,99073.79
2022-09-27T10:16:04.495Z,99069.52
2022-09-27T10:18:35.908Z,99069.20
2022-09-27T10:21:16.332Z,99065.54
2022-09-27T10:24:07.506Z,99064.00
2022-09-27T10:27:00.943Z,99060.02
2022-09-27T10:29:37.008Z,99061.13
2022-09-27T10:32:22.554Z,99059.48
2022-09-27T10:34:51.405Z,99060.70
2022-09-27T10:37:24.605Z,99060.54
2022-09-27T10:40:38.968Z,99060.70
2022-09-27T10:43:29.301Z,99056.92
2022-09-27T10:46:32.921Z,99058.90
2022-09-27T10:49:26.917Z,99057.31
2022-09-27T10:51:58.169Z,99053.05
2022-09-27T10:54:30.373Z,99055.88
2022-09-27T10:57:04.769Z,99052.27
2022-09-27T10:59:36.953Z,99045.27
2022-09-27T11:02:06.511Z,99042.72
2022-09-27T11:04:41.162Z,99043.95
2022-09-27T11:07:12.019Z,99043.08
2022-09-27T11:09:55.245Z,99039.68
2022-09-27T11:12:25.434Z,99040.34
2022-09-27T11:15:06.866Z,99033.77
2022-09-27T11:17:47.611Z,99031.27
2022-09-27T11:20:39.431Z,99028.81
2022-09-27T11:23:23.566Z,99023.58
2022-09-27T11:26:10.971Z,99021.39
2022-09-27T11:29:12.139Z,99014.37
2022-09-27T11:32:12.979Z,99016.15
2022-09-27T11:34:47.591Z,99017.95
2022-09-27T11:37:24.613Z,99015.45
2022-09-27T11:40:15.187Z,99015.24
2022-09-27T11:42:58.492Z,99011.32
2022-09-27T11:46:10.815Z,99007.45
2022-09-27T11:49:01.770Z,99005.13
2022-09-27T11:52:07.584Z,98999.98
2022-09-27T11:55:01.515Z,99001.83
2022-09-27T11:57:45.304Z,98998.83
2022-09-27T12:00:21.005Z,98997.98
2022-09-27T12:03:14.931Z,98997.93
2022-09-27T12:06:02.427Z,98996.23
2022-09-27T12:08:52.377Z,98997.36
2022-09-27T12:11:26.675Z,98996.91
2022-09-27T12:14:04.080Z,98994.77
2022-09-27T12:16:32.979Z,98996.77
2022-09-27T12:19:03.615Z,98997.07
2022-09-27T12:21:47.999Z,98992.35
2022-09-27T12:24:22.289Z,98993.29
2022-09-27T12:27:09.833Z,98990.00
2022-09-27T12:29:43.609Z,98986.57
2022-09-27T12:32:26.692Z,98985.15
2022-09-27T12:35:03.832Z,98980.71
2022-09-27T12:37:38.011Z,98982.14
2022-09-27T12:40:38.941Z,98982.52
2022-09-27T12:43:17.760Z,98980.59
2022-09-27T12:46:19.219Z,98981.59
2022-09-27T12:49:00.641Z,98973.09
2022-09-27T12:51:37.110Z,98976.65
2022-09-27T12:54:13.548Z,98976.71
2022-09-27T12:56:44.725Z,98973.17
2022-09-27T12:59:44.836Z,98974.26
2022-09-27T13:03:14.061Z,98972.53
2022-09-27T13:05:50.438Z,98971.02
2022-09-27T13:08:34.823Z,98966.06
2022-09-27T13:11:23.605Z,98961.21
2022-09-27T13:13:57.024Z,98959.61
2022-09-27T13:16:25.996Z,98954.52
2022-09-27T13:19:02.908Z,98950.15
2022-09-27T13:21:50.159Z,98944.04
2022-09-27T13:24:47.291Z,98941.96
2022-09-27T13:27:30.156Z,98945.27
2022-09-27T13:30:09.967Z,98951.13
2022-09-27T13:32:41.051Z,98951.27
2022-09-27T13:35:26.764Z,98950.61
2022-09-27T13:38:00.607Z,98952.02
2022-09-27T13:40:43.682Z,98954.45
2022-09-27T13:43:31.430Z,98953.69
2022-09-27T13:46:11.068Z,98955.34
2022-09-27T13:48:57.263Z,98953.14
2022-09-27T13:51:51.672Z,98950.70
2022-09-27T13:54:42.114Z,98951.44
2022-09-27T13:57:49.011Z,98947.27
2022-09-27T14:00:24.712Z,98949.74
2022-09-27T14:03:08.101Z,98948.52
2022-09-27T14:05:44.185Z,98948.58
2022-09-27T14:08:37.227Z,98944.77
2022-09-27T14:11:13.906Z,98944.80
2022-09-27T14:13:46.602Z,98949.08
2022-09-27T14:16:16.706Z,98946.08
2022-09-27T14:18:57.806Z,98942.26
2022-09-27T14:21:43.432Z,98948.20
2022-09-27T14:24:32.048Z,98947.77
2022-09-27T14:27:10.062Z,98945.79
2022-09-27T14:29:42.563Z,98939.52
2022-09-27T14:32:18.135Z,98938.29
2022-09-27T14:35:32.555Z,98936.76
2022-09-27T14:38:15.664Z,98933.50
2022-09-27T14:41:04.102Z,98928.80
2022-09-27T14:43:33.215Z,98931.28
2022-09-27T14:46:09.594Z,98927.59
2022-09-27T14:48:40.369Z,98928.21
2022-09-27T14:51:14.440Z,98930.35
2022-09-27T14:53:57.350Z,98931.86
2022-09-27T14:56:28.666Z,98929.09
2022-09-27T14:59:03.440Z,98927.42
2022-09-27T15:01:31.319Z,98926.80
2022-09-27T15:04:07.015Z,98925.44
2022-09-27T15:06:38.904Z,98927.19
2022-09-27T15:09:10.399Z,98925.60
2022-09-27T15:11:41.698Z,98930.85
2022-09-27T15:14:16.478Z,98928.84
2022-09-27T15:16:48.096Z,98927.27
2022-09-27T15:19:22.605Z,98929.38
2022-09-27T15:21:50.419Z,98933.50
2022-09-27T15:24:44.176Z,98932.61
2022-09-27T15:27:26.010Z,98929.70
2022-09-27T15:29:56.618Z,98929.41
2022-09-27T15:32:27.725Z,98929.95
2022-09-27T15:34:57.184Z,98934.80
2022-09-27T15:37:35.270Z,98935.06
2022-09-27T15:40:16.503Z,98938.76
2022-09-27T15:43:30.255Z,98935.58
2022-09-27T15:46:03.159Z,98938.33
2022-09-27T15:48:33.424Z,98940.02
2022-09-27T15:51:03.209Z,98945.70
2022-09-27T15:53:36.923Z,98948.61
2022-09-27T15:56:06.841Z,98951.16
2022-09-27T15:58:36.902Z,98951.81
2022-09-27T16:01:08.460Z,98949.88
2022-09-27T16:03:36.326Z,98948.61
2022-09-27T16:06:04.858Z,98947.65
2022-09-27T16:08:32.796Z,98952.51
2022-09-27T16:11:03.420Z,98949.95
2022-09-27T16:13:33.315Z,98950.01
2022-09-27T16:16:03.451Z,98947.64
2022-09-27T16:18:32.982Z,98945.15
2022-09-27T16:21:00.775Z,98944.89
2022-09-27T16:23:28.883Z,98948.59
2022-09-27T16:25:56.848Z,98951.94
2022-09-27T16:28:24.618Z,98954.82
2022-09-27T16:30:52.786Z,98955.45
2022-09-27T16:33:20.716Z,98963.18
2022-09-27T16:35:50.305Z,98967.84
2022-09-27T16:38:18.134Z,98974.98
2022-09-27T16:40:45.940Z,98985.65
2022-09-27T16:43:13.738Z,98994.23
2022-09-27T16:45:41.557Z,98993.90
2022-09-27T16:48:09.401Z,98999.86
2022-09-27T16:50:56.085Z,99006.78
2022-09-27T16:53:24.404Z,99007.88
2022-09-27T16:55:52.458Z,99014.14
2022-09-27T16:58:20.214Z,99017.30
2022-09-27T17:00:47.957Z,99017.09
2022-09-27T17:03:15.846Z,99015.84
2022-09-27T17:05:43.589Z,99012.00
2022-09-27T17:08:11.421Z,99008.80
2022-09-27T17:10:45.305Z,99008.24
2022-09-27T17:13:13.575Z,99001.95
2022-09-27T17:15:42.105Z,99006.95
2022-09-27T17:18:10.356Z,99002.83
2022-09-27T17:20:38.098Z,98999.85
2022-09-27T17:23:06.278Z,98998.19
2022-09-27T17:25:34.650Z,98997.84
2022-09-27T17:28:02.501Z,98993.84
2022-09-27T17:30:31.219Z,98996.04
2022-09-27T17:32:59.036Z,98996.25
2022-09-27T17:35:26.796Z,98997.76
2022-09-27T17:37:54.625Z,99003.42
2022-09-27T17:40:22.497Z,99010.35
2022-09-27T17:42:51.170Z,99013.46
2022-09-27T17:45:18.994Z,99017.94
2022-09-27T17:48:07.832Z,99021.20
2022-09-27T17:50:37.675Z,99022.10
2022-09-27T17:53:05.521Z,99025.06
2022-09-27T17:55:33.371Z,99022.88
2022-09-27T17:58:02.321Z,99025.98
2022-09-27T18:00:30.627Z,99028.97
2022-09-27T18:02:58.453Z,99032.16
2022-09-27T18:05:26.371Z,99034.19
2022-09-27T18:07:54.107Z,99039.52
2022-09-27T18:10:21.938Z,99043.45
2022-09-27T18:12:49.721Z,99041.26
2022-09-27T18:15:20.049Z,99042.70
2022-09-27T18:17:53.326Z,99038.48
2022-09-27T18:20:23.770Z,99040.73
2022-09-27T18:22:53.434Z,99045.77
2022-09-27T18:25:21.182Z,99047.63
2022-09-27T18:27:51.569Z,99049.97
2022-09-27T18:30:19.354Z,99050.63
2022-09-27T18:32:47.191Z,99055.80
2022-09-27T18:35:15.769Z,99058.77
2022-09-27T18:37:47.640Z,99056.33
2022-09-27T18:40:27.866Z,99060.27
2022-09-27T18:43:04.754Z,99057.99
2022-09-27T18:45:38.211Z,99056.25
2022-09-27T18:48:06.122Z,99057.98
2022-09-27T18:50:37.573Z,99061.05
2022-09-27T18:53:05.620Z,99065.83
2022-09-27T18:55:38.634Z,99065.42
2022-09-27T18:58:14.346Z,99069.70
2022-09-27T19:00:44.730Z,99077.23
2022-09-27T19:03:17.528Z,99075.34
2022-09-27T19:05:54.088Z,99078.57
2022-09-27T19:08:21.897Z,99074.27
2022-09-27T19:10:49.887Z,99077.56
2022-09-27T19:13:17.784Z,99077.32
2022-09-27T19:15:57.442Z,99081.94
2022-09-27T19:18:26.430Z,99084.49
2022-09-27T19:20:55.320Z,99086.52
2022-09-27T19:23:23.717Z,99079.80
2022-09-27T19:25:51.981Z,99082.89
2022-09-27T19:28:20.644Z,99088.62
2022-09-27T19:30:48.373Z,99089.36
2022-09-27T19:33:16.302Z,99087.93
2022-09-27T19:35:44.149Z,99093.84
2022-09-27T19:38:11.858Z,99093.63
2022-09-27T19:40:40.090Z,99100.60
2022-09-27T19:43:08.029Z,99104.39
2022-09-27T19:45:37.407Z,99106.38
2022-09-27T19:48:05.316Z,99105.05
2022-09-27T19:50:33.146Z,99104.58
2022-09-27T19:53:00.917Z,99107.80
2022-09-27T19:55:29.707Z,99107.42
2022-09-27T19:57:57.640Z,99104.45
2022-09-27T20:00:25.882Z,99104.99
2022-09-27T20:02:53.873Z,99102.42
2022-09-27T20:05:21.682Z,99101.06
2022-09-27T20:07:53.957Z,99102.41
2022-09-27T20:10:21.733Z,99103.61
2022-09-27T20:12:51.880Z,99104.98
2022-09-27T20:15:20.295Z,99106.58
2022-09-27T20:17:48.342Z,99106.91
2022-09-27T20:20:16.117Z,99107.15
2022-09-27T20:22:43.958Z,99104.73
2022-09-27T20:25:11.702Z,99104.98
2022-09-27T20:27:39.945Z,99105.90
2022-09-27T20:30:08.618Z,99107.33
2022-09-27T20:32:37.253Z,99103.45
2022-09-27T20:35:05.540Z,99105.43
2022-09-27T20:37:33.720Z,99104.67
2022-09-27T20:40:02.018Z,99110.98
2022-09-27T20:42:30.012Z,99110.73
2022-09-27T20:44:57.783Z,99114.87
2022-09-27T20:47:25.515Z,99115.96
2022-09-27T20:49:53.255Z,99118.30
2022-09-27T20:52:21.356Z,99116.70
2022-09-27T20:54:49.094Z,99114.95
2022-09-27T20:57:17.114Z,99111.95
2022-09-27T20:59:44.883Z,99110.00
2022-09-27T21:02:12.809Z,99116.31
2022-09-27T21:04:41.118Z,99113.08
2022-09-27T21:07:08.847Z,99115.21
2022-09-27T21:09:38.687Z,99113.81
2022-09-27T21:12:06.541Z,99112.91
2022-09-27T21:14:34.319Z,99114.62
2022-09-27T21:17:02.368Z,99112.59
2022-09-27T21:19:30.781Z,99121.16
2022-09-27T21:21:58.642Z,99118.74
2022-09-27T21:24:26.591Z,99121.55
2022-09-27T21:26:54.563Z,99121.50
2022-09-27T21:29:22.436Z,99126.73
2022-09-27T21:31:50.340Z,99132.00
2022-09-27T21:34:18.197Z,99134.92
2022-09-27T21:36:46.015Z,99134.06
2022-09-27T21:39:15.572Z,99134.09
2022-09-27T21:41:43.491Z,99131.58
2022-09-27T21:44:11.769Z,99131.75
2022-09-27T21:46:41.252Z,99130.86
2022-09-27T21:49:09.237Z,99131.95
2022-09-27T21:51:39.515Z,99131.45
2022-09-27T21:54:10.904Z,99133.22
2022-09-27T21:56:40.393Z,99139.21
2022-09-27T21:59:12.117Z,99136.84
2022-09-27T22:01:43.134Z,99135.77
2022-09-27T22:04:13.016Z,99136.67
2022-09-27T22:06:41.027Z,99133.73
2022-09-27T22:09:14.116Z,99133.77
2022-09-27T22:11:44.303Z,99133.41
2022-09-27T22:14:13.047Z,99130.11
2022-09-27T22:16:41.305Z,99130.09
2022-09-27T22:19:11.770Z,99130.10
2022-09-27T22:21:40.314Z,99127.98
2022-09-27T22:24:13.366Z,99123.33
2022-09-27T22:26:45.386Z,99127.98
2022-09-27T22:29:13.176Z,99129.84
2022-09-27T22:31:41.083Z,99134.66
2022-09-27T22:34:17.113Z,99137.92
2022-09-27T22:36:44.857Z,99139.94
2022-09-27T22:39:13.140Z,99140.16
2022-09-27T22:41:41.205Z,99138.94
2022-09-27T22:44:08.999Z,99135.41
2022-09-27T22:46:36.823Z,99134.98
2022-09-27T22:49:04.950Z,99131.85
2022-09-27T22:51:33.152Z,99132.41
2022-09-27T22:54:01.074Z,99135.59
2022-09-27T22:56:28.838Z,99137.11
2022-09-27T22:58:56.678Z,99140.48
2022-09-27T23:01:25.041Z,99143.40
2022-09-27T23:03:54.122Z,99142.73
2022-09-27T23:06:23.021Z,99145.23
2022-09-27T23:08:51.646Z,99148.83
2022-09-27T23:11:22.171Z,99147.66
2022-09-27T23:13:51.356Z,99148.98
2022-09-27T23:16:24.805Z,99147.87
2022-09-27T23:18:54.367Z,99149.30
2022-09-27T23:21:26.033Z,99151.42
2022-09-27T23:23:56.608Z,99153.27
2022-09-27T23:26:26.312Z,99150.66
2022-09-27T23:28:56.576Z,99153.17
2022-09-27T23:31:25.181Z,99153.27
2022-09-27T23:33:54.570Z,99153.23
2022-09-27T23:36:27.260Z,99153.73
2022-09-27T23:38:58.360Z,99145.73
2022-09-27T23:41:26.634Z,99145.46
2022-09-27T23:43:54.828Z,99141.47
2022-09-27T23:46:23.035Z,99138.06
2022-09-27T23:48:50.883Z,99138.27
2022-09-27T23:51:18.691Z,99138.52
2022-09-27T23:53:46.445Z,99136.27
2022-09-27T23:56:16.806Z,99131.48
2022-09-27T23:58:45.971Z,99130.40
